createdAt,value
2016-06-08T00:00:06.478Z,1013.35
2016-06-08T00:01:06.558Z,1013.34
2016-06-08T00:03:06.611Z,1013.3
2016-06-08T00:04:06.597Z,1013.32
2016-06-08T00:05:06.475Z,1013.3
2016-06-08T00:06:09.666Z,1013.29
2016-06-08T00:07:06.434Z,1013.32
2016-06-08T00:08:06.436Z,1013.32
2016-06-08T00:09:06.408Z,1013.32
2016-06-08T00:10:06.317Z,1013.31
2016-06-08T00:11:06.460Z,1013.34
2016-06-08T00:12:06.416Z,1013.34
2016-06-08T00:13:06.231Z,1013.32
2016-06-08T00:14:06.405Z,1013.31
2016-06-08T00:15:06.237Z,1013.28
2016-06-08T00:16:06.271Z,1013.31
2016-06-08T00:17:06.118Z,1013.3
2016-06-08T00:18:06.354Z,1013.29
2016-06-08T00:19:06.138Z,1013.33
2016-06-08T00:20:06.296Z,1013.3
2016-06-08T00:21:06.299Z,1013.35
2016-06-08T00:22:06.021Z,1013.35
2016-06-08T00:23:06.149Z,1013.36
2016-06-08T00:24:06.276Z,1013.34
2016-06-08T00:25:06.231Z,1013.31
2016-06-08T00:26:06.079Z,1013.28
2016-06-08T00:27:06.206Z,1013.26
2016-06-08T00:28:06.162Z,1013.26
2016-06-08T00:29:06.024Z,1013.25
2016-06-08T00:30:05.870Z,1013.27
2016-06-08T00:31:05.858Z,1013.24
2016-06-08T00:32:05.861Z,1013.24
2016-06-08T00:33:05.973Z,1013.27
2016-06-08T00:34:05.788Z,1013.23
2016-06-08T00:35:05.759Z,1013.23
2016-06-08T00:36:05.839Z,1013.25
2016-06-08T00:37:05.905Z,1013.26
2016-06-08T00:38:05.845Z,1013.27
2016-06-08T00:39:05.801Z,1013.27
2016-06-08T00:40:05.664Z,1013.27
2016-06-08T00:41:05.947Z,1013.26
2016-06-08T00:42:05.622Z,1013.28
2016-06-08T00:43:05.609Z,1013.27
2016-06-08T00:44:05.643Z,1013.26
2016-06-08T00:45:05.568Z,1013.21
2016-06-08T00:46:05.538Z,1013.27
2016-06-08T00:47:05.510Z,1013.26
2016-06-08T00:48:05.497Z,1013.24
2016-06-08T00:49:05.469Z,1013.24
2016-06-08T00:50:05.643Z,1013.21
2016-06-08T00:51:05.662Z,1013.23
2016-06-08T00:52:05.492Z,1013.22
2016-06-08T00:53:05.714Z,1013.25
2016-06-08T00:55:05.469Z,1013.2
2016-06-08T00:56:05.551Z,1013.21
2016-06-08T00:57:05.553Z,1013.2
2016-06-08T00:58:05.290Z,1013.14
2016-06-08T00:59:05.340Z,1013.16
2016-06-08T01:00:05.248Z,1013.16
2016-06-08T01:01:05.517Z,1013.15
2016-06-08T01:02:05.394Z,1013.13
2016-06-08T01:03:05.319Z,1013.13
2016-06-08T01:04:05.478Z,1013.11
2016-06-08T01:05:05.153Z,1013.11
2016-06-08T01:06:05.139Z,1013.1
2016-06-08T01:07:05.142Z,1013.11
2016-06-08T01:08:05.097Z,1013.09
2016-06-08T01:09:05.100Z,1013.06
2016-06-08T01:10:05.056Z,1013.07
2016-06-08T01:11:05.043Z,1013.05
2016-06-08T01:12:05.547Z,1013.04
2016-06-08T01:13:04.986Z,1013.02
2016-06-08T01:14:05.099Z,1013.02
2016-06-08T01:15:04.961Z,1013
2016-06-08T01:16:04.947Z,1013
2016-06-08T01:18:05.187Z,1012.98
2016-06-08T01:19:04.909Z,1013
2016-06-08T01:20:05.037Z,1013
2016-06-08T01:21:04.899Z,1012.97
2016-06-08T01:22:04.901Z,1012.98
2016-06-08T01:23:04.888Z,1012.98
2016-06-08T01:24:05.001Z,1012.95
2016-06-08T01:25:04.800Z,1012.94
2016-06-08T01:27:04.883Z,1012.93
2016-06-08T01:28:04.699Z,1012.88
2016-06-08T01:29:04.732Z,1012.92
2016-06-08T01:30:04.689Z,1012.9
2016-06-08T01:31:13.785Z,1012.91
2016-06-08T01:32:04.787Z,1012.91
2016-06-08T01:33:04.587Z,1012.86
2016-06-08T01:34:04.605Z,1012.89
2016-06-08T01:35:04.561Z,1012.87
2016-06-08T01:36:04.517Z,1012.92
2016-06-08T01:37:04.504Z,1012.88
2016-06-08T01:38:04.491Z,1012.88
2016-06-08T01:39:04.619Z,1012.89
2016-06-08T01:40:04.449Z,1012.93
2016-06-08T01:41:04.421Z,1012.91
2016-06-08T01:42:04.424Z,1012.89
2016-06-08T01:43:04.379Z,1012.92
2016-06-08T01:44:04.367Z,1012.9
2016-06-08T01:45:04.338Z,1012.9
2016-06-08T01:46:04.325Z,1012.93
2016-06-08T01:47:04.313Z,1012.91
2016-06-08T01:48:04.283Z,1012.89
2016-06-08T01:49:04.255Z,1012.87
2016-06-08T01:50:04.242Z,1012.88
2016-06-08T01:51:04.213Z,1012.88
2016-06-08T01:52:04.201Z,1012.87
2016-06-08T01:53:04.188Z,1012.87
2016-06-08T01:54:04.159Z,1012.87
2016-06-08T01:55:04.131Z,1012.89
2016-06-08T01:56:04.117Z,1012.84
2016-06-08T01:57:04.104Z,1012.83
2016-06-08T01:58:04.092Z,1012.85
2016-06-08T01:59:04.048Z,1012.86
2016-06-08T02:00:04.051Z,1012.93
2016-06-08T02:01:04.022Z,1012.93
2016-06-08T02:02:03.993Z,1012.94
2016-06-08T02:03:03.981Z,1012.94
2016-06-08T02:04:03.951Z,1012.93
2016-06-08T02:05:03.923Z,1012.96
2016-06-08T02:06:03.910Z,1012.96
2016-06-08T02:07:03.897Z,1012.93
2016-06-08T02:08:03.869Z,1012.96
2016-06-08T02:09:03.856Z,1012.96
2016-06-08T02:10:03.827Z,1012.95
2016-06-08T02:11:03.814Z,1012.95
2016-06-08T02:12:03.785Z,1012.96
2016-06-08T02:13:03.773Z,1012.97
2016-06-08T02:14:03.760Z,1012.9
2016-06-08T02:15:03.731Z,1012.98
2016-06-08T02:16:03.766Z,1012.95
2016-06-08T02:17:03.690Z,1012.94
2016-06-08T02:18:03.661Z,1012.98
2016-06-08T02:19:03.649Z,1012.96
2016-06-08T02:20:03.619Z,1012.96
2016-06-08T02:21:03.607Z,1012.98
2016-06-08T02:22:03.593Z,1012.97
2016-06-08T02:23:03.612Z,1013.01
2016-06-08T02:24:03.537Z,1012.98
2016-06-08T02:25:03.524Z,1013
2016-06-08T02:26:03.510Z,1012.98
2016-06-08T02:27:03.482Z,1012.95
2016-06-08T02:28:03.656Z,1013.01
2016-06-08T02:29:03.440Z,1012.96
2016-06-08T02:30:03.428Z,1012.94
2016-06-08T02:31:03.383Z,1012.94
2016-06-08T02:32:03.371Z,1012.92
2016-06-08T02:33:03.358Z,1012.97
2016-06-08T02:34:03.345Z,1012.91
2016-06-08T02:35:03.317Z,1012.94
2016-06-08T02:36:03.303Z,1012.91
2016-06-08T02:37:03.275Z,1012.94
2016-06-08T02:38:03.262Z,1012.93
2016-06-08T02:39:03.233Z,1012.91
2016-06-08T02:40:03.220Z,1012.92
2016-06-08T02:41:03.176Z,1012.9
2016-06-08T02:42:03.163Z,1012.9
2016-06-08T02:43:03.166Z,1012.92
2016-06-08T02:44:03.137Z,1012.97
2016-06-08T02:45:03.108Z,1012.95
2016-06-08T02:46:03.097Z,1012.98
2016-06-08T02:47:03.066Z,1012.95
2016-06-08T02:48:03.039Z,1012.98
2016-06-08T02:49:03.026Z,1013.02
2016-06-08T02:50:03.060Z,1012.96
2016-06-08T02:51:02.985Z,1012.99
2016-06-08T02:52:02.971Z,1013.01
2016-06-08T02:53:02.927Z,1013
2016-06-08T02:54:02.930Z,1013.03
2016-06-08T02:55:02.963Z,1013.01
2016-06-08T02:56:02.873Z,1012.98
2016-06-08T02:57:03.329Z,1013
2016-06-08T02:58:02.831Z,1012.97
2016-06-08T02:59:02.818Z,1012.95
2016-06-08T03:00:02.805Z,1012.93
2016-06-08T03:01:02.776Z,1012.94
2016-06-08T03:02:05.812Z,1012.94
2016-06-08T03:03:02.734Z,1012.93
2016-06-08T03:04:02.723Z,1012.96
2016-06-08T03:05:02.694Z,1012.88
2016-06-08T03:06:02.665Z,1012.88
2016-06-08T03:07:02.653Z,1012.93
2016-06-08T03:08:02.623Z,1012.92
2016-06-08T03:09:02.626Z,1012.88
2016-06-08T03:10:02.583Z,1012.89
2016-06-08T03:11:02.569Z,1012.88
2016-06-08T03:12:02.556Z,1012.93
2016-06-08T03:13:02.528Z,1012.9
2016-06-08T03:14:02.499Z,1012.91
2016-06-08T03:15:02.486Z,1012.86
2016-06-08T03:16:02.457Z,1012.83
2016-06-08T03:17:02.444Z,1012.85
2016-06-08T03:18:02.448Z,1012.81
2016-06-08T03:19:02.403Z,1012.8
2016-06-08T03:20:02.375Z,1012.74
2016-06-08T03:21:02.346Z,1012.74
2016-06-08T03:22:02.333Z,1012.75
2016-06-08T03:23:02.320Z,1012.72
2016-06-08T03:24:02.307Z,1012.7
2016-06-08T03:25:02.279Z,1012.71
2016-06-08T03:26:02.266Z,1012.7
2016-06-08T03:27:02.238Z,1012.71
2016-06-08T03:28:02.209Z,1012.71
2016-06-08T03:29:02.212Z,1012.72
2016-06-08T03:30:02.182Z,1012.7
2016-06-08T03:31:02.154Z,1012.71
2016-06-08T03:32:02.141Z,1012.73
2016-06-08T03:33:02.112Z,1012.7
2016-06-08T03:34:02.101Z,1012.72
2016-06-08T03:35:02.071Z,1012.71
2016-06-08T03:36:02.059Z,1012.67
2016-06-08T03:37:02.030Z,1012.68
2016-06-08T03:38:02.001Z,1012.67
2016-06-08T03:39:01.989Z,1012.66
2016-06-08T03:40:01.959Z,1012.69
2016-06-08T03:41:01.962Z,1012.68
2016-06-08T03:42:01.919Z,1012.68
2016-06-08T03:43:01.906Z,1012.64
2016-06-08T03:44:01.892Z,1012.68
2016-06-08T03:45:01.864Z,1012.7
2016-06-08T03:46:01.851Z,1012.73
2016-06-08T03:47:01.822Z,1012.73
2016-06-08T03:48:01.793Z,1012.74
2016-06-08T03:49:01.781Z,1012.76
2016-06-08T03:50:01.768Z,1012.73
2016-06-08T03:51:01.724Z,1012.69
2016-06-08T03:52:01.726Z,1012.69
2016-06-08T03:53:01.698Z,1012.69
2016-06-08T03:54:01.685Z,1012.68
2016-06-08T03:55:01.657Z,1012.69
2016-06-08T03:56:01.643Z,1012.66
2016-06-08T03:57:01.646Z,1012.67
2016-06-08T03:58:01.601Z,1012.66
2016-06-08T03:59:01.574Z,1012.66
2016-06-08T04:00:01.546Z,1012.67
2016-06-08T04:01:01.532Z,1012.69
2016-06-08T04:02:01.503Z,1012.69
2016-06-08T04:03:01.490Z,1012.72
2016-06-08T04:04:01.462Z,1012.71
2016-06-08T04:05:01.448Z,1012.75
2016-06-08T04:06:01.436Z,1012.75
2016-06-08T04:07:01.407Z,1012.77
2016-06-08T04:08:01.379Z,1012.8
2016-06-08T04:09:01.662Z,1012.81
2016-06-08T04:10:01.337Z,1012.78
2016-06-08T04:11:01.325Z,1012.83
2016-06-08T04:12:01.499Z,1012.83
2016-06-08T04:13:01.955Z,1012.86
2016-06-08T04:14:01.254Z,1012.86
2016-06-08T04:15:01.258Z,1012.83
2016-06-08T04:16:01.229Z,1012.84
2016-06-08T04:17:01.200Z,1012.79
2016-06-08T04:18:01.171Z,1012.79
2016-06-08T04:19:01.158Z,1012.81
2016-06-08T04:20:01.130Z,1012.82
2016-06-08T04:21:01.116Z,1012.77
2016-06-08T04:22:01.088Z,1012.79
2016-06-08T04:23:01.075Z,1012.75
2016-06-08T04:24:01.047Z,1012.79
2016-06-08T04:25:01.049Z,1012.81
2016-06-08T04:26:01.021Z,1012.8
2016-06-08T04:27:00.993Z,1012.81
2016-06-08T04:28:00.995Z,1012.85
2016-06-08T04:29:00.951Z,1012.86
2016-06-08T04:30:00.922Z,1012.88
2016-06-08T04:31:00.926Z,1012.89
2016-06-08T04:32:00.882Z,1012.89
2016-06-08T04:33:00.868Z,1012.88
2016-06-08T04:34:00.840Z,1012.88
2016-06-08T04:35:00.826Z,1012.9
2016-06-08T04:36:00.798Z,1012.9
2016-06-08T04:37:00.784Z,1012.88
2016-06-08T04:38:00.756Z,1012.9
2016-06-08T04:39:00.743Z,1012.89
2016-06-08T04:40:00.731Z,1012.88
2016-06-08T04:41:00.702Z,1012.89
2016-06-08T04:42:00.673Z,1012.88
2016-06-08T04:43:00.661Z,1012.88
2016-06-08T04:44:00.647Z,1012.89
2016-06-08T04:45:00.619Z,1012.89
2016-06-08T04:46:00.590Z,1012.86
2016-06-08T04:47:00.578Z,1012.87
2016-06-08T04:48:00.550Z,1012.84
2016-06-08T04:49:00.536Z,1012.84
2016-06-08T04:50:00.522Z,1012.84
2016-06-08T04:51:00.494Z,1012.86
2016-06-08T04:52:00.482Z,1012.83
2016-06-08T04:53:00.452Z,1012.91
2016-06-08T04:54:00.441Z,1012.86
2016-06-08T04:55:00.411Z,1012.86
2016-06-08T04:56:00.383Z,1012.85
2016-06-08T04:57:00.370Z,1012.83
2016-06-08T04:58:00.357Z,1012.87
2016-06-08T04:59:00.329Z,1012.88
2016-06-08T05:00:00.331Z,1012.84
2016-06-08T05:01:00.302Z,1012.88
2016-06-08T05:02:00.273Z,1012.89
2016-06-08T05:03:00.557Z,1012.89
2016-06-08T05:04:00.233Z,1012.91
2016-06-08T05:05:00.204Z,1012.92
2016-06-08T05:06:00.191Z,1012.94
2016-06-08T05:07:00.165Z,1012.94
2016-06-08T05:08:00.163Z,1012.94
2016-06-08T05:09:00.145Z,1012.97
2016-06-08T05:10:00.142Z,1012.98
2016-06-08T05:11:00.124Z,1012.99
2016-06-08T05:12:00.119Z,1013
2016-06-08T05:13:00.110Z,1012.97
2016-06-08T05:14:00.085Z,1013
2016-06-08T05:15:00.061Z,1012.96
2016-06-08T05:16:00.051Z,1012.95
2016-06-08T05:17:00.026Z,1012.94
2016-06-08T05:18:00.014Z,1012.96
2016-06-08T05:19:00.003Z,1012.96
2016-06-08T05:19:59.975Z,1012.98
2016-06-08T05:21:00.011Z,1012.97
2016-06-08T05:21:59.936Z,1012.97
2016-06-08T05:22:59.907Z,1012.94
2016-06-08T05:23:59.911Z,1012.95
2016-06-08T05:24:59.867Z,1012.99
2016-06-08T05:25:59.855Z,1012.97
2016-06-08T05:26:59.842Z,1012.97
2016-06-08T05:27:59.814Z,1012.97
2016-06-08T05:28:59.817Z,1012.97
2016-06-08T05:29:59.773Z,1012.98
2016-06-08T05:30:59.760Z,1012.99
2016-06-08T05:31:59.748Z,1013.01
2016-06-08T05:32:59.719Z,1013.01
2016-06-08T05:33:59.707Z,1012.99
2016-06-08T05:34:59.678Z,1013.02
2016-06-08T05:35:59.665Z,1012.98
2016-06-08T05:36:59.636Z,1012.98
2016-06-08T05:37:59.608Z,1012.97
2016-06-08T05:38:59.595Z,1012.96
2016-06-08T05:39:59.566Z,1012.94
2016-06-08T05:40:59.601Z,1012.95
2016-06-08T05:41:59.540Z,1012.95
2016-06-08T05:43:00.653Z,1012.94
2016-06-08T05:43:59.545Z,1012.97
2016-06-08T05:44:59.673Z,1012.9
2016-06-08T05:45:59.551Z,1012.91
2016-06-08T05:46:59.632Z,1012.92
2016-06-08T05:47:59.634Z,1012.9
2016-06-08T05:48:59.497Z,1012.93
2016-06-08T05:49:59.469Z,1012.88
2016-06-08T05:50:59.549Z,1012.84
2016-06-08T05:51:59.474Z,1012.89
2016-06-08T05:52:59.492Z,1012.89
2016-06-08T05:53:59.525Z,1012.92
2016-06-08T05:54:59.450Z,1012.93
2016-06-08T05:55:59.499Z,1012.92
2016-06-08T05:56:59.425Z,1012.94
2016-06-08T05:57:59.458Z,1012.92
2016-06-08T05:58:59.430Z,1012.95
2016-06-08T05:59:59.448Z,1012.96
2016-06-08T06:00:59.451Z,1012.93
2016-06-08T06:01:59.422Z,1012.94
2016-06-08T06:17:00.119Z,1012.95
2016-06-08T06:20:01.861Z,1012.94
2016-06-08T06:21:01.770Z,1012.93
2016-06-08T06:22:01.757Z,1012.94
2016-06-08T06:23:01.728Z,1012.93
2016-06-08T06:24:01.731Z,1012.97
2016-06-08T06:25:01.672Z,1012.93
2016-06-08T06:26:01.658Z,1012.99
2016-06-08T06:26:58.755Z,1012.97
2016-06-08T06:27:59.164Z,1012.97
2016-06-08T06:28:58.635Z,1012.97
2016-06-08T06:29:58.607Z,1012.99
2016-06-08T06:30:58.546Z,1012.99
2016-06-08T06:31:58.534Z,1013.01
2016-06-08T06:32:58.506Z,1012.98
2016-06-08T06:33:58.477Z,1013
2016-06-08T06:34:58.464Z,1012.99
2016-06-08T06:35:58.499Z,1012.95
2016-06-08T06:36:58.423Z,1012.96
2016-06-08T06:37:58.394Z,1012.97
2016-06-08T06:38:58.396Z,1012.92
2016-06-08T06:39:58.368Z,1012.94
2016-06-08T06:40:58.340Z,1012.95
2016-06-08T06:41:58.342Z,1012.95
2016-06-08T06:42:58.392Z,1012.95
2016-06-08T06:43:58.285Z,1012.92
2016-06-08T06:44:58.257Z,1012.93
2016-06-08T06:45:58.244Z,1012.92
2016-06-08T06:46:58.231Z,1012.92
2016-06-08T06:47:58.203Z,1012.9
2016-06-08T06:48:58.173Z,1012.92
2016-06-08T06:49:58.161Z,1012.91
2016-06-08T06:50:58.147Z,1012.91
2016-06-08T06:51:58.119Z,1012.91
2016-06-08T06:52:58.138Z,1012.93
2016-06-08T06:53:58.078Z,1012.91
2016-06-08T06:54:58.065Z,1012.89
2016-06-08T06:55:58.146Z,1012.93
2016-06-08T06:56:58.024Z,1012.96
2016-06-08T06:57:57.994Z,1012.95
2016-06-08T06:58:57.997Z,1012.95
2016-06-08T06:59:58.250Z,1012.92
2016-06-08T07:00:57.955Z,1012.94
2016-06-08T07:01:58.208Z,1012.94
2016-06-08T07:02:58.165Z,1012.93
2016-06-08T07:03:57.886Z,1012.91
2016-06-08T07:04:57.889Z,1012.91
2016-06-08T07:05:57.828Z,1012.9
2016-06-08T07:06:57.816Z,1012.94
2016-06-08T07:07:57.804Z,1012.9
2016-06-08T07:08:57.774Z,1012.87
2016-06-08T07:09:57.762Z,1012.9
2016-06-08T07:10:57.748Z,1012.85
2016-06-08T07:11:57.735Z,1012.86
2016-06-08T07:12:58.301Z,1012.83
2016-06-08T07:13:57.694Z,1012.83
2016-06-08T07:14:57.650Z,1012.82
2016-06-08T07:15:57.652Z,1012.83
2016-06-08T07:16:57.623Z,1012.78
2016-06-08T07:17:57.596Z,1012.82
2016-06-08T07:18:57.583Z,1012.81
2016-06-08T07:19:57.543Z,1012.8
2016-06-08T07:20:57.546Z,1012.85
2016-06-08T07:21:57.530Z,1012.79
2016-06-08T07:22:57.496Z,1012.84
2016-06-08T07:23:57.483Z,1012.82
2016-06-08T07:24:57.451Z,1012.82
2016-06-08T07:25:57.437Z,1012.82
2016-06-08T07:26:57.425Z,1012.82
2016-06-08T07:27:57.397Z,1012.82
2016-06-08T07:28:57.493Z,1012.79
2016-06-08T07:30:00.636Z,1012.83
2016-06-08T07:30:57.358Z,1012.82
2016-06-08T07:31:57.313Z,1012.81
2016-06-08T07:33:00.378Z,1012.79
2016-06-08T07:33:57.600Z,1012.83
2016-06-08T07:34:57.515Z,1012.86
2016-06-08T07:35:57.345Z,1012.85
2016-06-08T07:36:57.317Z,1012.82
2016-06-08T07:37:57.289Z,1012.83
2016-06-08T07:38:57.198Z,1012.82
2016-06-08T07:39:57.278Z,1012.8
2016-06-08T07:40:57.145Z,1012.79
2016-06-08T07:41:57.133Z,1012.82
2016-06-08T07:42:57.275Z,1012.81
2016-06-08T07:43:57.107Z,1012.8
2016-06-08T07:44:57.219Z,1012.83
2016-06-08T07:45:57.049Z,1012.84
2016-06-08T07:46:57.036Z,1012.83
2016-06-08T07:48:00.226Z,1012.85
2016-06-08T07:48:56.995Z,1012.88
2016-06-08T07:49:57.044Z,1012.87
2016-06-08T07:50:56.964Z,1012.81
2016-06-08T07:51:56.935Z,1012.85
2016-06-08T07:52:56.907Z,1012.84
2016-06-08T07:53:56.894Z,1012.87
2016-06-08T07:54:56.881Z,1012.87
2016-06-08T07:55:56.852Z,1012.82
2016-06-08T07:56:56.857Z,1012.87
2016-06-08T07:57:57.422Z,1012.85
2016-06-08T07:58:56.940Z,1012.84
2016-06-08T07:59:56.787Z,1012.84
2016-06-08T08:00:56.961Z,1012.89
2016-06-08T08:01:56.730Z,1012.87
2016-06-08T08:02:56.717Z,1012.81
2016-06-08T08:03:56.704Z,1012.86
2016-06-08T08:04:56.753Z,1012.83
2016-06-08T08:05:56.647Z,1012.86
2016-06-08T08:06:56.634Z,1012.86
2016-06-08T08:07:56.622Z,1012.84
2016-06-08T08:08:56.609Z,1012.78
2016-06-08T08:09:56.580Z,1012.79
2016-06-08T08:10:56.552Z,1012.79
2016-06-08T08:11:56.557Z,1012.79
2016-06-08T08:12:57.622Z,1012.79
2016-06-08T08:13:56.500Z,1012.79
2016-06-08T08:14:56.494Z,1012.8
2016-06-08T08:15:56.482Z,1012.81
2016-06-08T08:16:56.468Z,1012.78
2016-06-08T08:17:56.455Z,1012.81
2016-06-08T08:18:56.615Z,1012.83
2016-06-08T08:19:56.633Z,1012.82
2016-06-08T08:20:56.385Z,1012.78
2016-06-08T08:21:56.357Z,1012.77
2016-06-08T08:22:56.531Z,1012.82
2016-06-08T08:23:56.316Z,1012.79
2016-06-08T08:24:56.288Z,1012.82
2016-06-08T08:25:56.304Z,1012.79
2016-06-08T08:26:56.293Z,1012.79
2016-06-08T08:27:56.264Z,1012.78
2016-06-08T08:28:56.298Z,1012.82
2016-06-08T08:29:56.223Z,1012.81
2016-06-08T08:30:56.178Z,1012.77
2016-06-08T08:31:56.165Z,1012.8
2016-06-08T08:32:56.152Z,1012.79
2016-06-08T08:33:56.123Z,1012.77
2016-06-08T08:34:56.095Z,1012.76
2016-06-08T08:35:56.081Z,1012.79
2016-06-08T08:36:56.084Z,1012.74
2016-06-08T08:37:56.025Z,1012.69
2016-06-08T08:38:56.028Z,1012.77
2016-06-08T08:39:56.000Z,1012.75
2016-06-08T08:40:56.002Z,1012.75
2016-06-08T08:41:55.958Z,1012.74
2016-06-08T08:42:55.945Z,1012.74
2016-06-08T08:43:55.917Z,1012.77
2016-06-08T08:44:55.981Z,1012.77
2016-06-08T08:45:55.891Z,1012.77
2016-06-08T08:46:55.877Z,1012.76
2016-06-08T08:47:55.864Z,1012.73
2016-06-08T08:48:55.820Z,1012.77
2016-06-08T08:49:55.823Z,1012.8
2016-06-08T08:50:55.794Z,1012.77
2016-06-08T08:51:55.796Z,1012.77
2016-06-08T08:52:56.049Z,1012.78
2016-06-08T08:53:55.849Z,1012.74
2016-06-08T08:54:55.726Z,1012.76
2016-06-08T08:55:55.714Z,1012.76
2016-06-08T08:56:55.685Z,1012.75
2016-06-08T08:57:55.657Z,1012.75
2016-06-08T08:58:55.738Z,1012.76
2016-06-08T08:59:55.616Z,1012.73
2016-06-08T09:00:55.617Z,1012.75
2016-06-08T09:01:55.668Z,1012.72
2016-06-08T09:02:55.718Z,1012.72
2016-06-08T09:03:55.548Z,1012.71
2016-06-08T09:04:55.535Z,1012.7
2016-06-08T09:05:55.506Z,1012.72
2016-06-08T09:06:55.494Z,1012.7
2016-06-08T09:07:55.465Z,1012.66
2016-06-08T09:08:55.467Z,1012.69
2016-06-08T09:09:55.439Z,1012.69
2016-06-08T09:10:55.411Z,1012.66
2016-06-08T09:11:55.397Z,1012.68
2016-06-08T09:12:55.385Z,1012.66
2016-06-08T09:13:55.356Z,1012.66
2016-06-08T09:14:55.344Z,1012.65
2016-06-08T09:15:55.314Z,1012.68
2016-06-08T09:16:55.302Z,1012.65
2016-06-08T09:17:55.289Z,1012.68
2016-06-08T09:18:55.260Z,1012.7
2016-06-08T09:19:55.247Z,1012.65
2016-06-08T09:20:55.235Z,1012.67
2016-06-08T09:21:55.222Z,1012.66
2016-06-08T09:22:55.193Z,1012.66
2016-06-08T09:23:55.180Z,1012.67
2016-06-08T09:24:55.167Z,1012.64
2016-06-08T09:25:55.138Z,1012.66
2016-06-08T09:26:55.141Z,1012.68
2016-06-08T09:27:55.097Z,1012.67
2016-06-08T09:28:55.662Z,1012.67
2016-06-08T09:29:55.055Z,1012.68
2016-06-08T09:30:55.043Z,1012.64
2016-06-08T09:31:55.029Z,1012.59
2016-06-08T09:32:55.001Z,1012.62
2016-06-08T09:33:54.987Z,1012.64
2016-06-08T09:34:55.037Z,1012.62
2016-06-08T09:35:54.978Z,1012.55
2016-06-08T09:36:54.933Z,1012.59
2016-06-08T09:37:54.905Z,1012.57
2016-06-08T09:38:54.892Z,1012.59
2016-06-08T09:39:54.895Z,1012.55
2016-06-08T09:40:54.898Z,1012.57
2016-06-08T09:41:54.838Z,1012.6
2016-06-08T09:42:54.825Z,1012.59
2016-06-08T09:43:54.828Z,1012.51
2016-06-08T09:44:55.268Z,1012.56
2016-06-08T09:45:54.755Z,1012.52
2016-06-08T09:46:54.742Z,1012.56
2016-06-08T09:47:54.729Z,1012.53
2016-06-08T09:48:54.700Z,1012.52
2016-06-08T09:49:54.781Z,1012.54
2016-06-08T09:50:54.674Z,1012.53
2016-06-08T09:51:54.661Z,1012.54
2016-06-08T09:52:54.648Z,1012.52
2016-06-08T09:53:54.621Z,1012.53
2016-06-08T09:54:54.591Z,1012.53
2016-06-08T09:55:54.594Z,1012.51
2016-06-08T09:56:54.549Z,1012.49
2016-06-08T09:57:54.537Z,1012.5
2016-06-08T09:58:54.555Z,1012.46
2016-06-08T09:59:54.511Z,1012.45
2016-06-08T10:00:54.482Z,1012.49
2016-06-08T10:01:54.470Z,1012.5
2016-06-08T10:02:54.457Z,1012.48
2016-06-08T10:03:54.600Z,1012.49
2016-06-08T10:04:54.587Z,1012.48
2016-06-08T10:05:54.387Z,1012.48
2016-06-08T10:06:54.374Z,1012.48
2016-06-08T10:07:54.362Z,1012.47
2016-06-08T10:08:54.347Z,1012.52
2016-06-08T10:09:54.320Z,1012.52
2016-06-08T10:10:54.306Z,1012.51
2016-06-08T10:11:54.294Z,1012.49
2016-06-08T10:12:54.297Z,1012.51
2016-06-08T10:13:55.049Z,1012.5
2016-06-08T10:14:54.427Z,1012.47
2016-06-08T10:15:54.211Z,1012.51
2016-06-08T10:16:54.276Z,1012.5
2016-06-08T10:17:54.185Z,1012.5
2016-06-08T10:18:54.155Z,1012.5
2016-06-08T10:19:54.299Z,1012.5
2016-06-08T10:20:54.130Z,1012.48
2016-06-08T10:21:54.117Z,1012.47
2016-06-08T10:22:54.119Z,1012.51
2016-06-08T10:23:54.060Z,1012.48
2016-06-08T10:24:54.046Z,1012.43
2016-06-08T10:25:54.081Z,1012.48
2016-06-08T10:26:54.005Z,1012.41
2016-06-08T10:27:54.008Z,1012.43
2016-06-08T10:28:54.011Z,1012.43
2016-06-08T10:29:53.951Z,1012.41
2016-06-08T10:30:53.938Z,1012.46
2016-06-08T10:31:54.018Z,1012.44
2016-06-08T10:32:53.913Z,1012.46
2016-06-08T10:33:53.899Z,1012.42
2016-06-08T10:34:54.027Z,1012.42
2016-06-08T10:35:53.983Z,1012.39
2016-06-08T10:36:53.923Z,1012.42
2016-06-08T10:37:53.848Z,1012.4
2016-06-08T10:38:53.976Z,1012.37
2016-06-08T10:39:53.837Z,1012.36
2016-06-08T10:40:53.840Z,1012.4
2016-06-08T10:41:53.859Z,1012.39
2016-06-08T10:42:53.736Z,1012.4
2016-06-08T10:43:53.989Z,1012.37
2016-06-08T10:44:57.023Z,1012.42
2016-06-08T10:45:53.791Z,1012.43
2016-06-08T10:46:53.700Z,1012.44
2016-06-08T10:47:53.655Z,1012.4
2016-06-08T10:49:53.583Z,1012.39
2016-06-08T10:50:53.789Z,1012.38
2016-06-08T10:51:53.588Z,1012.38
2016-06-08T10:52:53.607Z,1012.39
2016-06-08T10:53:53.610Z,1012.33
2016-06-08T10:54:53.738Z,1012.32
2016-06-08T10:55:53.724Z,1012.33
2016-06-08T10:56:53.726Z,1012.33
2016-06-08T10:57:53.588Z,1012.3
2016-06-08T10:58:56.998Z,1012.27
2016-06-08T10:59:53.688Z,1012.32
2016-06-08T11:00:53.676Z,1012.29
2016-06-08T11:01:56.647Z,1012.3
2016-06-08T11:02:53.696Z,1012.33
2016-06-08T11:04:53.670Z,1012.3
2016-06-08T11:05:53.314Z,1012.25
2016-06-08T11:06:53.551Z,1012.25
2016-06-08T11:07:53.476Z,1012.23
2016-06-08T11:08:53.306Z,1012.25
2016-06-08T11:09:53.231Z,1012.24
2016-06-08T11:10:53.264Z,1012.25
2016-06-08T11:12:53.458Z,1012.28
2016-06-08T11:13:55.397Z,1012.21
2016-06-08T11:14:53.463Z,1012.25
2016-06-08T11:15:53.278Z,1012.21
2016-06-08T11:16:53.108Z,1012.25
2016-06-08T11:18:53.067Z,1012.18
2016-06-08T11:19:53.319Z,1012.17
2016-06-08T11:20:53.042Z,1012.19
2016-06-08T11:21:53.358Z,1012.17
2016-06-08T11:22:53.312Z,1012.19
2016-06-08T11:23:53.331Z,1012.18
2016-06-08T11:24:53.240Z,1012.17
2016-06-08T11:25:53.180Z,1012.15
2016-06-08T11:26:52.933Z,1012.14
2016-06-08T11:27:52.935Z,1012.12
2016-06-08T11:28:53.063Z,1012.13
2016-06-08T11:29:52.894Z,1012.12
2016-06-08T11:30:52.912Z,1012.13
2016-06-08T11:31:53.055Z,1012.12
2016-06-08T11:32:53.012Z,1012.12
2016-06-08T11:33:52.795Z,1012.09
2016-06-08T11:34:52.829Z,1012.05
2016-06-08T11:35:52.770Z,1012.05
2016-06-08T11:36:52.803Z,1012.09
2016-06-08T11:37:52.743Z,1012.05
2016-06-08T11:38:52.777Z,1012.04
2016-06-08T11:39:53.076Z,1012.01
2016-06-08T11:40:55.799Z,1011.98
2016-06-08T11:41:52.942Z,1011.99
2016-06-08T11:42:52.773Z,1011.98
2016-06-08T11:43:52.791Z,1011.94
2016-06-08T11:44:53.012Z,1011.94
2016-06-08T11:45:52.625Z,1011.99
2016-06-08T11:46:52.581Z,1011.94
2016-06-08T11:47:52.567Z,1011.9
2016-06-08T11:48:52.570Z,1011.92
2016-06-08T11:49:52.525Z,1011.93
2016-06-08T11:50:52.513Z,1011.88
2016-06-08T11:51:52.547Z,1011.89
2016-06-08T11:52:52.471Z,1011.9
2016-06-08T11:53:52.505Z,1011.91
2016-06-08T11:54:52.461Z,1011.9
2016-06-08T11:55:52.432Z,1011.94
2016-06-08T11:56:52.467Z,1011.93
2016-06-08T11:57:52.375Z,1011.92
2016-06-08T11:58:52.377Z,1011.91
2016-06-08T11:59:52.521Z,1011.94
2016-06-08T12:00:52.337Z,1011.91
2016-06-08T12:01:52.323Z,1011.87
2016-06-08T12:02:52.311Z,1011.94
2016-06-08T12:03:52.282Z,1011.92
2016-06-08T12:04:52.268Z,1011.88
2016-06-08T12:05:52.257Z,1011.86
2016-06-08T12:06:52.228Z,1011.86
2016-06-08T12:07:52.387Z,1011.87
2016-06-08T12:08:52.218Z,1011.86
2016-06-08T12:09:52.204Z,1011.89
2016-06-08T12:10:52.176Z,1011.88
2016-06-08T12:11:52.148Z,1011.85
2016-06-08T12:12:52.212Z,1011.85
2016-06-08T12:13:52.122Z,1011.85
2016-06-08T12:14:52.171Z,1011.86
2016-06-08T12:15:52.392Z,1011.85
2016-06-08T12:16:52.067Z,1011.88
2016-06-08T12:17:52.054Z,1011.88
2016-06-08T12:18:52.041Z,1011.86
2016-06-08T12:19:52.028Z,1011.91
2016-06-08T12:20:52.015Z,1011.94
2016-06-08T12:21:52.002Z,1011.9
2016-06-08T12:22:51.974Z,1011.93
2016-06-08T12:23:51.977Z,1011.93
2016-06-08T12:24:52.151Z,1011.94
2016-06-08T12:25:51.919Z,1011.93
2016-06-08T12:26:51.907Z,1011.95
2016-06-08T12:27:51.988Z,1011.93
2016-06-08T12:28:51.866Z,1011.92
2016-06-08T12:29:51.852Z,1011.95
2016-06-08T12:30:51.838Z,1011.9
2016-06-08T12:31:51.811Z,1011.91